createdAt,value
2019-03-08T00:00:39.746Z,965.41
2019-03-08T00:01:39.797Z,965.41
2019-03-08T00:02:39.878Z,965.38
2019-03-08T00:03:39.886Z,965.41
2019-03-08T00:04:39.925Z,965.37
2019-03-08T00:05:39.974Z,965.36
2019-03-08T00:06:40.023Z,965.35
2019-03-08T00:07:40.103Z,965.36
2019-03-08T00:08:40.099Z,965.38
2019-03-08T00:09:40.163Z,965.36
2019-03-08T00:10:40.196Z,965.35
2019-03-08T00:11:40.243Z,965.36
2019-03-08T00:12:40.318Z,965.36
2019-03-08T00:13:40.329Z,965.38
2019-03-08T00:14:40.374Z,965.40
2019-03-08T00:15:40.493Z,965.41
2019-03-08T00:16:40.458Z,965.37
2019-03-08T00:17:40.512Z,965.33
2019-03-08T00:18:40.568Z,965.35
2019-03-08T00:19:40.581Z,965.39
2019-03-08T00:20:40.630Z,965.33
2019-03-08T00:21:40.666Z,965.39
2019-03-08T00:22:40.819Z,965.35
2019-03-08T00:23:40.758Z,965.36
2019-03-08T00:24:40.799Z,965.39
2019-03-08T00:25:40.844Z,965.44
2019-03-08T00:26:40.885Z,965.40
2019-03-08T00:27:40.948Z,965.43
2019-03-08T00:28:40.998Z,965.42
2019-03-08T00:29:41.016Z,965.31
2019-03-08T00:30:41.061Z,965.40
2019-03-08T00:31:41.109Z,965.43
2019-03-08T00:32:41.144Z,965.47
2019-03-08T00:33:41.218Z,965.50
2019-03-08T00:34:41.236Z,965.50
2019-03-08T00:35:41.286Z,965.47
2019-03-08T00:36:41.320Z,965.52
2019-03-08T00:37:41.364Z,965.54
2019-03-08T00:38:41.424Z,965.56
2019-03-08T00:39:41.458Z,965.58
2019-03-08T00:40:41.495Z,965.60
2019-03-08T00:41:41.534Z,965.60
2019-03-08T00:42:41.581Z,965.57
2019-03-08T00:43:41.651Z,965.60
2019-03-08T00:44:41.671Z,965.58
2019-03-08T00:45:41.718Z,965.60
2019-03-08T00:46:41.759Z,965.64
2019-03-08T00:47:43.450Z,965.66
2019-03-08T00:48:41.863Z,965.66
2019-03-08T00:49:41.884Z,965.73
2019-03-08T00:50:41.930Z,965.67
2019-03-08T00:51:41.983Z,965.71
2019-03-08T00:52:42.021Z,965.72
2019-03-08T00:53:42.083Z,965.77
2019-03-08T00:54:42.123Z,965.78
2019-03-08T00:55:42.144Z,965.80
2019-03-08T00:56:42.228Z,965.81
2019-03-08T00:57:42.646Z,965.78
2019-03-08T00:58:42.274Z,965.79
2019-03-08T00:59:42.354Z,965.78
2019-03-08T01:00:42.360Z,965.80
2019-03-08T01:01:42.406Z,965.84
2019-03-08T01:02:42.447Z,965.84
2019-03-08T01:03:42.491Z,965.87
2019-03-08T01:04:42.555Z,965.82
2019-03-08T01:05:42.577Z,965.85
2019-03-08T01:06:42.623Z,965.87
2019-03-08T01:07:42.706Z,965.88
2019-03-08T01:08:42.709Z,965.92
2019-03-08T01:09:42.775Z,965.90
2019-03-08T01:10:42.799Z,965.86
2019-03-08T01:11:42.856Z,965.91
2019-03-08T01:12:42.887Z,965.90
2019-03-08T01:13:42.966Z,965.95
2019-03-08T01:14:43.107Z,965.97
2019-03-08T01:15:43.011Z,965.93
2019-03-08T01:16:43.056Z,965.95
2019-03-08T01:17:43.108Z,965.94
2019-03-08T01:18:43.141Z,965.91
2019-03-08T01:19:43.206Z,965.92
2019-03-08T01:20:43.234Z,965.94
2019-03-08T01:21:43.276Z,965.92
2019-03-08T01:22:43.316Z,965.96
2019-03-08T01:23:43.360Z,965.96
2019-03-08T01:24:43.427Z,965.95
2019-03-08T01:25:43.467Z,966.01
2019-03-08T01:26:43.486Z,966.01
2019-03-08T01:27:43.531Z,966.01
2019-03-08T01:28:43.572Z,965.94
2019-03-08T01:29:43.620Z,965.99
2019-03-08T01:30:43.684Z,966.00
2019-03-08T01:31:43.703Z,966.05
2019-03-08T01:32:43.796Z,966.04
2019-03-08T01:33:43.793Z,966.03
2019-03-08T01:34:43.834Z,966.07
2019-03-08T01:35:43.905Z,966.09
2019-03-08T01:36:43.927Z,966.08
2019-03-08T01:37:43.966Z,966.08
2019-03-08T01:38:44.014Z,966.14
2019-03-08T01:39:44.155Z,966.17
2019-03-08T01:40:44.118Z,966.09
2019-03-08T01:41:44.144Z,966.16
2019-03-08T01:42:44.179Z,966.13
2019-03-08T01:43:44.232Z,966.17
2019-03-08T01:44:44.266Z,966.17
2019-03-08T01:45:44.328Z,966.21
2019-03-08T01:46:44.380Z,966.18
2019-03-08T01:47:44.398Z,966.20
2019-03-08T01:48:44.446Z,966.17
2019-03-08T01:49:44.480Z,966.16
2019-03-08T01:50:44.554Z,966.18
2019-03-08T01:51:44.586Z,966.21
2019-03-08T01:52:44.610Z,966.20
2019-03-08T01:53:44.653Z,966.20
2019-03-08T01:54:44.699Z,966.23
2019-03-08T01:55:44.738Z,966.19
2019-03-08T01:56:44.812Z,966.23
2019-03-08T01:57:44.853Z,966.19
2019-03-08T01:58:44.872Z,966.22
2019-03-08T01:59:44.914Z,966.23
2019-03-08T02:00:44.960Z,966.24
2019-03-08T02:01:45.023Z,966.24
2019-03-08T02:02:45.038Z,966.28
2019-03-08T02:03:45.101Z,966.23
2019-03-08T02:04:45.128Z,966.23
2019-03-08T02:05:45.173Z,966.20
2019-03-08T02:06:45.240Z,966.19
2019-03-08T02:07:45.259Z,966.26
2019-03-08T02:08:45.296Z,966.19
2019-03-08T02:09:45.342Z,966.20
2019-03-08T02:10:45.398Z,966.22
2019-03-08T02:11:45.450Z,966.24
2019-03-08T02:12:45.477Z,966.16
2019-03-08T02:13:45.515Z,966.20
2019-03-08T02:14:45.557Z,966.14
2019-03-08T02:15:45.651Z,966.16
2019-03-08T02:16:45.661Z,966.24
2019-03-08T02:17:45.689Z,966.21
2019-03-08T02:18:45.731Z,966.24
2019-03-08T02:19:45.771Z,966.22
2019-03-08T02:20:45.815Z,966.23
2019-03-08T02:21:45.883Z,966.27
2019-03-08T02:22:46.033Z,966.25
2019-03-08T02:23:45.943Z,966.29
2019-03-08T02:24:45.989Z,966.28
2019-03-08T02:25:46.044Z,966.30
2019-03-08T02:26:46.093Z,966.32
2019-03-08T02:27:46.152Z,966.31
2019-03-08T02:28:46.162Z,966.29
2019-03-08T02:29:46.204Z,966.29
2019-03-08T02:30:46.247Z,966.33
2019-03-08T02:31:46.336Z,966.34
2019-03-08T02:32:46.365Z,966.35
2019-03-08T02:33:46.400Z,966.34
2019-03-08T02:34:46.418Z,966.30
2019-03-08T02:35:46.470Z,966.33
2019-03-08T02:36:46.504Z,966.34
2019-03-08T02:37:46.569Z,966.32
2019-03-08T02:38:46.620Z,966.37
2019-03-08T02:39:46.648Z,966.32
2019-03-08T02:40:46.696Z,966.37
2019-03-08T02:41:46.731Z,966.39
2019-03-08T02:42:46.767Z,966.42
2019-03-08T02:43:46.844Z,966.36
2019-03-08T02:44:46.852Z,966.38
2019-03-08T02:45:46.911Z,966.37
2019-03-08T02:46:46.939Z,966.39
2019-03-08T02:47:46.985Z,966.38
2019-03-08T02:48:47.049Z,966.31
2019-03-08T02:49:47.076Z,966.38
2019-03-08T02:50:47.117Z,966.34
2019-03-08T02:51:47.155Z,966.33
2019-03-08T02:52:47.211Z,966.35
2019-03-08T02:53:47.262Z,966.35
2019-03-08T02:54:47.294Z,966.35
2019-03-08T02:55:47.329Z,966.37
2019-03-08T02:56:47.476Z,966.33
2019-03-08T02:57:47.417Z,966.39
2019-03-08T02:58:47.525Z,966.39
2019-03-08T02:59:47.505Z,966.39
2019-03-08T03:00:47.552Z,966.32
2019-03-08T03:01:47.596Z,966.38
2019-03-08T03:02:47.636Z,966.42
2019-03-08T03:03:47.719Z,966.40
2019-03-08T03:04:47.723Z,966.35
2019-03-08T03:05:47.773Z,966.36
2019-03-08T03:06:47.809Z,966.36
2019-03-08T03:07:47.858Z,966.38
2019-03-08T03:08:47.938Z,966.40
2019-03-08T03:09:47.942Z,966.39
2019-03-08T03:10:47.983Z,966.44
2019-03-08T03:11:48.034Z,966.45
2019-03-08T03:12:48.070Z,966.41
2019-03-08T03:13:48.141Z,966.45
2019-03-08T03:14:48.190Z,966.52
2019-03-08T03:15:48.205Z,966.56
2019-03-08T03:16:48.251Z,966.58
2019-03-08T03:17:48.295Z,966.56
2019-03-08T03:18:48.356Z,966.58
2019-03-08T03:19:48.401Z,966.61
2019-03-08T03:20:48.425Z,966.71
2019-03-08T03:21:48.470Z,966.64
2019-03-08T03:22:48.510Z,966.67
2019-03-08T03:23:48.554Z,966.63
2019-03-08T03:24:48.627Z,966.63
2019-03-08T03:25:48.650Z,966.70
2019-03-08T03:26:48.687Z,966.70
2019-03-08T03:27:48.735Z,966.74
2019-03-08T03:28:48.773Z,966.71
2019-03-08T03:29:48.859Z,966.76
2019-03-08T03:30:48.871Z,966.72
2019-03-08T03:31:48.905Z,966.78
2019-03-08T03:32:48.960Z,966.77
2019-03-08T03:33:48.991Z,966.81
2019-03-08T03:34:49.077Z,966.86
2019-03-08T03:35:49.080Z,966.88
2019-03-08T03:36:49.131Z,966.93
2019-03-08T03:37:49.169Z,966.90
2019-03-08T03:38:49.241Z,966.92
2019-03-08T03:39:49.281Z,966.97
2019-03-08T03:40:49.326Z,966.94
2019-03-08T03:41:49.345Z,966.98
2019-03-08T03:42:49.402Z,967.00
2019-03-08T03:43:49.431Z,967.01
2019-03-08T03:44:49.514Z,967.00
2019-03-08T03:45:49.523Z,967.05
2019-03-08T03:46:49.565Z,967.02
2019-03-08T03:47:49.613Z,967.03
2019-03-08T03:48:49.652Z,967.04
2019-03-08T03:49:49.733Z,967.06
2019-03-08T03:50:49.782Z,967.10
2019-03-08T03:51:49.784Z,967.07
2019-03-08T03:52:49.842Z,967.09
2019-03-08T03:53:49.881Z,967.11
2019-03-08T03:54:49.924Z,967.11
2019-03-08T03:55:50.000Z,967.14
2019-03-08T03:56:50.007Z,967.14
2019-03-08T03:57:50.116Z,967.15
2019-03-08T03:58:50.094Z,967.23
2019-03-08T03:59:50.137Z,967.23
2019-03-08T04:00:50.201Z,967.24
2019-03-08T04:01:50.228Z,967.25
2019-03-08T04:02:50.272Z,967.29
2019-03-08T04:03:50.318Z,967.28
2019-03-08T04:04:50.377Z,967.32
2019-03-08T04:05:50.437Z,967.33
2019-03-08T04:06:50.449Z,967.39
2019-03-08T04:07:50.493Z,967.41
2019-03-08T04:08:50.537Z,967.42
2019-03-08T04:09:50.583Z,967.47
2019-03-08T04:10:50.657Z,967.47
2019-03-08T04:11:50.676Z,967.47
2019-03-08T04:12:50.716Z,967.41
2019-03-08T04:13:50.766Z,967.51
2019-03-08T04:14:50.803Z,967.50
2019-03-08T04:15:50.881Z,967.50
2019-03-08T04:16:50.912Z,967.47
2019-03-08T04:17:50.937Z,967.49
2019-03-08T04:18:50.993Z,967.48
2019-03-08T04:19:51.028Z,967.52
2019-03-08T04:20:51.071Z,967.46
2019-03-08T04:21:51.132Z,967.59
2019-03-08T04:22:51.224Z,967.55
2019-03-08T04:23:51.204Z,967.59
2019-03-08T04:24:51.255Z,967.62
2019-03-08T04:25:51.291Z,967.59
2019-03-08T04:26:51.363Z,967.58
2019-03-08T04:27:51.390Z,967.60
2019-03-08T04:28:51.425Z,967.60
2019-03-08T04:29:51.607Z,967.56
2019-03-08T04:30:51.522Z,967.58
2019-03-08T04:31:51.583Z,967.62
2019-03-08T04:32:51.613Z,967.63
2019-03-08T04:33:51.645Z,967.60
2019-03-08T04:34:51.695Z,967.62
2019-03-08T04:35:51.734Z,967.63
2019-03-08T04:36:51.802Z,967.66
2019-03-08T04:37:51.842Z,967.66
2019-03-08T04:38:51.876Z,967.67
2019-03-08T04:39:51.918Z,967.66
2019-03-08T04:40:51.960Z,967.71
2019-03-08T04:41:52.022Z,967.75
2019-03-08T04:42:52.067Z,967.73
2019-03-08T04:43:52.088Z,967.72
2019-03-08T04:44:52.135Z,967.76
2019-03-08T04:45:52.180Z,967.78
2019-03-08T04:46:52.255Z,967.78
2019-03-08T04:47:52.348Z,967.79
2019-03-08T04:48:52.313Z,967.81
2019-03-08T04:49:52.357Z,967.84
2019-03-08T04:50:52.399Z,967.86
2019-03-08T04:51:52.443Z,967.79
2019-03-08T04:52:52.521Z,967.88
2019-03-08T04:53:52.549Z,967.85
2019-03-08T04:54:52.576Z,967.86
2019-03-08T04:55:52.631Z,967.89
2019-03-08T04:56:52.671Z,967.88
2019-03-08T04:57:52.732Z,967.92
2019-03-08T04:58:52.756Z,967.92
2019-03-08T04:59:52.807Z,967.92
2019-03-08T05:00:52.842Z,967.94
2019-03-08T05:01:52.918Z,967.92
2019-03-08T05:02:52.954Z,967.96
2019-03-08T05:03:53.071Z,967.99
2019-03-08T05:04:53.021Z,968.00
2019-03-08T05:05:53.077Z,968.03
2019-03-08T05:06:53.112Z,968.08
2019-03-08T05:07:53.164Z,968.02
2019-03-08T05:08:53.227Z,968.03
2019-03-08T05:09:53.247Z,968.06
2019-03-08T05:10:53.289Z,968.01
2019-03-08T05:11:53.331Z,968.05
2019-03-08T05:12:53.402Z,968.06
2019-03-08T05:13:53.419Z,968.08
2019-03-08T05:14:53.465Z,968.11
2019-03-08T05:15:53.511Z,968.08
2019-03-08T05:16:53.561Z,968.05
2019-03-08T05:17:53.630Z,968.10
2019-03-08T05:18:53.662Z,968.11
2019-03-08T05:19:53.692Z,968.13
2019-03-08T05:20:53.736Z,968.16
2019-03-08T05:21:53.812Z,968.15
2019-03-08T05:22:53.825Z,968.13
2019-03-08T05:23:53.887Z,968.20
2019-03-08T05:24:53.910Z,968.15
2019-03-08T05:25:53.953Z,968.20
2019-03-08T05:26:53.997Z,968.14
2019-03-08T05:27:54.044Z,968.14
2019-03-08T05:28:54.147Z,968.15
2019-03-08T05:29:54.135Z,968.21
2019-03-08T05:30:54.179Z,968.15
2019-03-08T05:31:54.220Z,968.18
2019-03-08T05:32:54.266Z,968.18
2019-03-08T05:33:54.340Z,968.20
2019-03-08T05:34:54.357Z,968.19
2019-03-08T05:35:54.405Z,968.21
2019-03-08T05:36:54.445Z,968.25
2019-03-08T05:37:54.484Z,968.29
2019-03-08T05:38:54.551Z,968.26
2019-03-08T05:39:54.582Z,968.27
2019-03-08T05:40:54.620Z,968.32
2019-03-08T05:41:54.662Z,968.25
2019-03-08T05:42:54.707Z,968.32
2019-03-08T05:43:54.782Z,968.34
2019-03-08T05:44:54.822Z,968.36
2019-03-08T05:45:54.866Z,968.39
2019-03-08T05:46:54.941Z,968.36
2019-03-08T05:47:54.937Z,968.37
2019-03-08T05:48:54.974Z,968.43
2019-03-08T05:49:55.057Z,968.40
2019-03-08T05:50:55.070Z,968.43
2019-03-08T05:51:55.106Z,968.34
2019-03-08T05:52:55.152Z,968.47
2019-03-08T05:53:55.297Z,968.45
2019-03-08T05:54:55.259Z,968.52
2019-03-08T05:55:55.301Z,968.50
2019-03-08T05:56:55.328Z,968.48
2019-03-08T05:57:55.379Z,968.51
2019-03-08T05:58:55.424Z,968.57
2019-03-08T05:59:55.481Z,968.64
2019-03-08T06:00:55.521Z,968.62
2019-03-08T06:01:55.556Z,968.60
2019-03-08T06:02:55.594Z,968.60
2019-03-08T06:03:55.645Z,968.65
2019-03-08T06:04:55.702Z,968.64
2019-03-08T06:05:55.741Z,968.66
2019-03-08T06:06:55.770Z,968.73
2019-03-08T06:07:55.829Z,968.69
2019-03-08T06:08:55.857Z,968.68
2019-03-08T06:09:55.907Z,968.68
2019-03-08T06:10:55.972Z,968.71
2019-03-08T06:11:56.028Z,968.72
2019-03-08T06:12:56.032Z,968.71
2019-03-08T06:13:56.078Z,968.78
2019-03-08T06:14:56.129Z,968.75
2019-03-08T06:15:56.195Z,968.77
2019-03-08T06:16:56.208Z,968.77
2019-03-08T06:17:56.538Z,968.83
2019-03-08T06:18:56.302Z,968.78
2019-03-08T06:19:56.344Z,968.84
2019-03-08T06:20:56.422Z,968.87
2019-03-08T06:21:56.436Z,968.83
2019-03-08T06:22:56.473Z,968.83
2019-03-08T06:23:56.535Z,968.87
2019-03-08T06:24:56.565Z,968.84
2019-03-08T06:25:56.635Z,968.87
2019-03-08T06:26:56.666Z,968.87
2019-03-08T06:27:56.699Z,968.88
2019-03-08T06:28:56.744Z,968.89
2019-03-08T06:29:56.791Z,968.94
2019-03-08T06:30:56.842Z,968.98
2019-03-08T06:31:56.911Z,968.96
2019-03-08T06:32:56.914Z,968.99
2019-03-08T06:33:56.958Z,969.01
2019-03-08T06:34:57.001Z,969.00
2019-03-08T06:35:57.046Z,969.01
2019-03-08T06:36:57.108Z,969.00
2019-03-08T06:37:57.143Z,969.04
2019-03-08T06:38:57.186Z,969.04
2019-03-08T06:39:57.223Z,969.09
2019-03-08T06:40:57.265Z,969.09
2019-03-08T06:41:57.353Z,969.13
2019-03-08T06:42:57.355Z,969.16
2019-03-08T06:43:57.405Z,969.18
2019-03-08T06:44:57.447Z,969.22
2019-03-08T06:45:57.499Z,969.18
2019-03-08T06:46:57.544Z,969.22
2019-03-08T06:47:57.602Z,969.22
2019-03-08T06:48:57.620Z,969.23
2019-03-08T06:49:57.662Z,969.24
2019-03-08T06:50:57.707Z,969.23
2019-03-08T06:51:57.756Z,969.28
2019-03-08T06:52:57.843Z,969.29
2019-03-08T06:53:57.841Z,969.34
2019-03-08T06:54:57.885Z,969.32
2019-03-08T06:55:57.929Z,969.32
2019-03-08T06:56:57.972Z,969.35
2019-03-08T06:57:58.038Z,969.37
2019-03-08T06:58:58.059Z,969.35
2019-03-08T06:59:58.107Z,969.38
2019-03-08T07:00:58.148Z,969.41
2019-03-08T07:01:58.196Z,969.41
2019-03-08T07:02:58.251Z,969.42
2019-03-08T07:03:58.278Z,969.49
2019-03-08T07:04:58.330Z,969.49
2019-03-08T07:05:58.371Z,969.54
2019-03-08T07:06:58.422Z,969.56
2019-03-08T07:07:58.477Z,969.58
2019-03-08T07:08:58.498Z,969.56
2019-03-08T07:09:58.546Z,969.58
2019-03-08T07:10:58.648Z,969.59
2019-03-08T07:11:58.636Z,969.56
2019-03-08T07:13:03.300Z,969.54
2019-03-08T07:13:58.731Z,969.66
2019-03-08T07:14:58.781Z,969.68
2019-03-08T07:15:58.823Z,969.71
2019-03-08T07:16:58.857Z,969.66
2019-03-08T07:17:58.946Z,969.65
2019-03-08T07:18:58.943Z,969.74
2019-03-08T07:19:58.991Z,969.75
2019-03-08T07:20:59.038Z,969.81
2019-03-08T07:21:59.081Z,969.89
2019-03-08T07:22:59.154Z,969.88
2019-03-08T07:23:59.167Z,969.96
2019-03-08T07:24:59.208Z,969.94
2019-03-08T07:25:59.250Z,969.94
2019-03-08T07:26:59.297Z,969.97
2019-03-08T07:27:59.419Z,969.99
2019-03-08T07:28:59.417Z,970.01
2019-03-08T07:29:59.446Z,970.03
2019-03-08T07:30:59.477Z,970.08
2019-03-08T07:31:59.518Z,970.04
2019-03-08T07:32:59.594Z,970.03
2019-03-08T07:33:59.613Z,970.07
2019-03-08T07:34:59.652Z,970.07
2019-03-08T07:35:59.762Z,970.07
2019-03-08T07:36:59.754Z,970.09
2019-03-08T07:37:59.809Z,970.12
2019-03-08T07:38:59.851Z,970.10
2019-03-08T07:39:59.874Z,970.13
2019-03-08T07:40:59.918Z,970.11
2019-03-08T07:41:59.962Z,970.14
2019-03-08T07:43:00.006Z,970.09
2019-03-08T07:44:00.070Z,970.14
2019-03-08T07:45:00.128Z,970.11
2019-03-08T07:46:00.142Z,970.14
2019-03-08T07:47:00.186Z,970.15
2019-03-08T07:48:00.223Z,970.21
2019-03-08T07:49:00.286Z,970.21
2019-03-08T07:50:00.339Z,970.22
2019-03-08T07:51:00.368Z,970.21
2019-03-08T07:52:00.404Z,970.27
2019-03-08T07:53:00.448Z,970.28
2019-03-08T07:54:00.538Z,970.26
2019-03-08T07:55:00.540Z,970.28
2019-03-08T07:56:00.586Z,970.28
2019-03-08T07:57:00.619Z,970.29
2019-03-08T07:58:00.667Z,970.29
2019-03-08T07:59:00.750Z,970.33
2019-03-08T08:00:00.766Z,970.32
2019-03-08T08:01:00.842Z,970.35
2019-03-08T08:02:00.857Z,970.35
2019-03-08T08:03:04.225Z,970.38
2019-03-08T08:04:00.961Z,970.37
2019-03-08T08:05:01.004Z,970.43
2019-03-08T08:06:01.041Z,970.44
2019-03-08T08:07:01.072Z,970.47
2019-03-08T08:08:01.109Z,970.44
2019-03-08T08:09:01.160Z,970.47
2019-03-08T08:10:01.261Z,970.49
2019-03-08T08:11:01.250Z,970.52
2019-03-08T08:12:01.286Z,970.55
2019-03-08T08:13:01.332Z,970.61
2019-03-08T08:14:01.375Z,970.56
2019-03-08T08:15:01.454Z,970.57
2019-03-08T08:16:01.467Z,970.59
2019-03-08T08:17:01.508Z,970.65
2019-03-08T08:18:01.555Z,970.65
2019-03-08T08:19:01.637Z,970.65
2019-03-08T08:20:01.662Z,970.69
2019-03-08T08:21:01.710Z,970.74
2019-03-08T08:22:01.738Z,970.78
2019-03-08T08:23:01.792Z,970.83
2019-03-08T08:24:01.824Z,970.79
2019-03-08T08:25:01.864Z,970.83
2019-03-08T08:26:01.957Z,970.85
2019-03-08T08:27:01.973Z,970.91
2019-03-08T08:28:02.000Z,970.95
2019-03-08T08:29:02.044Z,970.98
2019-03-08T08:30:02.088Z,971.00
2019-03-08T08:31:02.160Z,971.03
2019-03-08T08:32:02.180Z,971.07
2019-03-08T08:33:02.229Z,971.10
2019-03-08T08:34:02.274Z,971.11
2019-03-08T08:35:02.316Z,971.14
2019-03-08T08:36:02.376Z,971.11
2019-03-08T08:37:02.402Z,971.08
2019-03-08T08:38:02.455Z,971.05
2019-03-08T08:39:02.491Z,971.16
2019-03-08T08:40:02.533Z,971.15
2019-03-08T08:41:02.607Z,971.20
2019-03-08T08:42:02.648Z,971.19
2019-03-08T08:43:02.668Z,971.26
2019-03-08T08:44:02.712Z,971.24
2019-03-08T08:45:02.762Z,971.22
2019-03-08T08:46:02.823Z,971.27
2019-03-08T08:47:02.872Z,971.33
2019-03-08T08:48:02.908Z,971.29
2019-03-08T08:49:03.809Z,971.31
2019-03-08T08:50:02.986Z,971.30
2019-03-08T08:51:03.025Z,971.26
2019-03-08T08:52:03.103Z,971.27
2019-03-08T08:53:03.112Z,971.24
2019-03-08T08:54:03.162Z,971.24
2019-03-08T08:55:03.220Z,971.28
2019-03-08T08:56:03.264Z,971.28
2019-03-08T08:57:03.328Z,971.29
2019-03-08T08:58:03.339Z,971.35
2019-03-08T08:59:03.385Z,971.32
2019-03-08T09:00:03.445Z,971.35
2019-03-08T09:01:03.483Z,971.37
2019-03-08T09:02:03.553Z,971.38
2019-03-08T09:03:03.569Z,971.44
2019-03-08T09:04:03.622Z,971.44
2019-03-08T09:05:03.659Z,971.45
2019-03-08T09:06:03.697Z,971.43
2019-03-08T09:07:03.887Z,971.46
2019-03-08T09:08:03.787Z,971.45
2019-03-08T09:09:03.835Z,971.53
2019-03-08T09:10:03.873Z,971.48
2019-03-08T09:11:03.925Z,971.53
2019-03-08T09:12:03.987Z,971.54
2019-03-08T09:13:04.023Z,971.58
2019-03-08T09:14:04.056Z,971.61
2019-03-08T09:15:04.104Z,971.65
2019-03-08T09:16:04.144Z,971.65
2019-03-08T09:17:04.185Z,971.64
2019-03-08T09:18:04.249Z,971.72
2019-03-08T09:19:04.280Z,971.74
2019-03-08T09:20:04.323Z,971.78
2019-03-08T09:21:04.383Z,971.75
2019-03-08T09:22:04.413Z,971.78
2019-03-08T09:23:04.473Z,971.81
2019-03-08T09:24:04.503Z,971.80
2019-03-08T09:25:04.546Z,971.80
2019-03-08T09:26:04.600Z,971.85
2019-03-08T09:27:04.632Z,971.84
2019-03-08T09:28:04.708Z,971.86
2019-03-08T09:29:04.730Z,971.91
2019-03-08T09:30:04.775Z,971.94
2019-03-08T09:31:04.810Z,971.90
2019-03-08T09:32:04.957Z,971.92
2019-03-08T09:33:04.942Z,971.93
2019-03-08T09:34:04.949Z,971.89
2019-03-08T09:35:04.992Z,971.94
2019-03-08T09:36:05.038Z,971.93
2019-03-08T09:37:05.077Z,971.91
2019-03-08T09:38:05.164Z,971.92
2019-03-08T09:39:05.167Z,971.98
2019-03-08T09:40:05.228Z,971.95
2019-03-08T09:41:05.255Z,971.95
2019-03-08T09:42:05.298Z,971.99
2019-03-08T09:43:05.382Z,972.03
2019-03-08T09:44:05.395Z,972.05
2019-03-08T09:45:05.433Z,972.08
2019-03-08T09:46:05.486Z,972.05
2019-03-08T09:47:05.534Z,972.07
2019-03-08T09:48:05.597Z,972.05
2019-03-08T09:49:05.635Z,972.06
2019-03-08T09:50:05.685Z,972.06
2019-03-08T09:51:05.709Z,972.07
2019-03-08T09:52:05.759Z,972.09
2019-03-08T09:53:05.814Z,972.07
2019-03-08T09:54:05.860Z,972.16
2019-03-08T09:55:05.879Z,972.11
2019-03-08T09:56:05.931Z,972.10
2019-03-08T09:57:05.976Z,972.08
2019-03-08T09:58:06.014Z,972.11
2019-03-08T09:59:06.082Z,972.14
2019-03-08T10:00:06.109Z,972.16
2019-03-08T10:01:06.148Z,972.19
2019-03-08T10:02:06.199Z,972.15
2019-03-08T10:03:06.239Z,972.25
2019-03-08T10:04:06.301Z,972.21
2019-03-08T10:05:06.356Z,972.20
2019-03-08T10:06:06.395Z,972.18
2019-03-08T10:07:06.419Z,972.19
2019-03-08T10:08:06.469Z,972.17
2019-03-08T10:09:06.510Z,972.14
2019-03-08T10:10:06.569Z,972.17
2019-03-08T10:11:06.600Z,972.24
2019-03-08T10:12:06.642Z,972.12
2019-03-08T10:13:06.687Z,972.17
2019-03-08T10:14:06.732Z,972.16
2019-03-08T10:15:06.810Z,972.13
2019-03-08T10:16:06.818Z,972.15
2019-03-08T10:17:06.871Z,972.11
2019-03-08T10:18:06.910Z,972.09
2019-03-08T10:19:06.963Z,972.13
2019-03-08T10:20:07.037Z,972.18
2019-03-08T10:21:07.051Z,972.18
2019-03-08T10:22:07.096Z,972.20
2019-03-08T10:23:07.140Z,972.20
2019-03-08T10:24:07.182Z,972.22
2019-03-08T10:25:07.267Z,972.23
2019-03-08T10:26:07.292Z,972.22
2019-03-08T10:27:07.330Z,972.23
2019-03-08T10:28:07.359Z,972.23
2019-03-08T10:29:07.413Z,972.32
2019-03-08T10:30:07.450Z,972.32
2019-03-08T10:31:07.671Z,972.34
2019-03-08T10:32:07.578Z,972.37
2019-03-08T10:33:07.589Z,972.35
2019-03-08T10:34:07.638Z,972.39
2019-03-08T10:35:07.679Z,972.37
2019-03-08T10:36:07.777Z,972.38
2019-03-08T10:37:07.779Z,972.36
2019-03-08T10:38:07.926Z,972.38
2019-03-08T10:39:07.853Z,972.40
2019-03-08T10:40:07.895Z,972.44
2019-03-08T10:41:07.977Z,972.47
2019-03-08T10:42:08.008Z,972.51
2019-03-08T10:43:08.033Z,972.55
2019-03-08T10:44:11.037Z,972.57
2019-03-08T10:45:08.129Z,972.62
2019-03-08T10:46:15.567Z,972.64
2019-03-08T10:47:08.215Z,972.58
2019-03-08T10:48:08.265Z,972.59
2019-03-08T10:49:08.300Z,972.57
2019-03-08T10:50:08.351Z,972.68
2019-03-08T10:51:08.433Z,972.65
2019-03-08T10:52:17.106Z,972.58
2019-03-08T10:53:08.477Z,972.53
2019-03-08T10:54:08.524Z,972.63
2019-03-08T10:55:08.575Z,972.62
2019-03-08T10:56:08.639Z,972.67
2019-03-08T10:57:08.686Z,972.59
2019-03-08T10:58:08.705Z,972.60
2019-03-08T10:59:08.757Z,972.60
2019-03-08T11:00:08.791Z,972.65
2019-03-08T11:01:08.844Z,972.64
2019-03-08T11:02:08.929Z,972.55
2019-03-08T11:03:08.981Z,972.57
2019-03-08T11:04:08.971Z,972.55
2019-03-08T11:05:09.011Z,972.58
2019-03-08T11:06:09.063Z,972.61
2019-03-08T11:07:09.130Z,972.66
2019-03-08T11:08:09.170Z,972.65
2019-03-08T11:09:09.190Z,972.70
2019-03-08T11:10:09.243Z,972.72
2019-03-08T11:11:09.280Z,972.71
2019-03-08T11:12:09.362Z,972.73
2019-03-08T11:13:09.377Z,972.76
2019-03-08T11:14:09.422Z,972.78
2019-03-08T11:15:09.463Z,972.74
2019-03-08T11:16:09.512Z,972.76
2019-03-08T11:17:09.588Z,972.79
2019-03-08T11:18:09.591Z,972.82
2019-03-08T11:19:09.638Z,972.83
2019-03-08T11:20:09.698Z,972.87
2019-03-08T11:21:09.725Z,972.88
2019-03-08T11:22:09.806Z,972.86
2019-03-08T11:23:09.851Z,972.81
2019-03-08T11:24:09.860Z,972.89
2019-03-08T11:25:09.951Z,972.91
2019-03-08T11:26:09.949Z,972.89
2019-03-08T11:27:10.006Z,972.91
2019-03-08T11:28:10.129Z,972.94
2019-03-08T11:29:10.086Z,972.83
2019-03-08T11:30:10.132Z,972.88
2019-03-08T11:31:11.786Z,972.87
2019-03-08T11:32:10.225Z,972.81
2019-03-08T11:33:10.316Z,972.82
2019-03-08T11:34:10.325Z,972.81
2019-03-08T11:35:10.369Z,972.80
2019-03-08T11:36:10.412Z,972.83
2019-03-08T11:37:10.458Z,972.81
2019-03-08T11:38:10.525Z,972.76
2019-03-08T11:39:10.579Z,972.79
2019-03-08T11:40:10.604Z,972.75
2019-03-08T11:41:12.948Z,972.77
2019-03-08T11:42:10.691Z,972.79
2019-03-08T11:43:10.728Z,972.80
2019-03-08T11:44:10.859Z,972.84
2019-03-08T11:45:10.831Z,972.88
2019-03-08T11:46:10.886Z,972.88
2019-03-08T11:47:10.912Z,972.82
2019-03-08T11:48:10.965Z,972.82
2019-03-08T11:49:11.033Z,972.82
2019-03-08T11:50:11.076Z,972.86
2019-03-08T11:51:11.202Z,972.80
2019-03-08T11:52:11.151Z,972.80
2019-03-08T11:53:11.193Z,972.82
2019-03-08T11:54:11.283Z,972.79
2019-03-08T11:55:11.290Z,972.77
2019-03-08T11:56:11.343Z,972.81
2019-03-08T11:57:11.427Z,972.79
2019-03-08T11:58:11.437Z,972.78
2019-03-08T11:59:11.516Z,972.80
2019-03-08T12:00:11.527Z,972.74
2019-03-08T12:01:11.581Z,972.75
2019-03-08T12:02:11.622Z,972.78
2019-03-08T12:03:11.674Z,972.73
2019-03-08T12:04:11.754Z,972.66
2019-03-08T12:05:11.762Z,972.67
2019-03-08T12:06:11.814Z,972.70
2019-03-08T12:07:11.868Z,972.71
2019-03-08T12:08:11.912Z,972.68
2019-03-08T12:09:12.015Z,972.67
2019-03-08T12:10:12.003Z,972.68
2019-03-08T12:11:12.049Z,972.67
2019-03-08T12:12:12.093Z,972.68
2019-03-08T12:13:12.141Z,972.72
2019-03-08T12:14:12.208Z,972.68
2019-03-08T12:15:12.260Z,972.70
2019-03-08T12:16:12.289Z,972.73
2019-03-08T12:17:12.327Z,972.72
2019-03-08T12:18:12.378Z,972.73
2019-03-08T12:19:12.418Z,972.75
2019-03-08T12:20:12.487Z,972.78
2019-03-08T12:21:12.513Z,972.75
2019-03-08T12:22:12.568Z,972.79
2019-03-08T12:23:12.749Z,972.79
2019-03-08T12:24:12.664Z,972.79
2019-03-08T12:25:12.725Z,972.79
2019-03-08T12:26:12.774Z,972.70
2019-03-08T12:27:12.788Z,972.70
2019-03-08T12:28:12.845Z,972.69
2019-03-08T12:29:12.884Z,972.68